Live aus Altenrhein
LIVE
LSZR 200150Z AUTO 12004KT 090V160 9999 OVC048 SCT090 13/12 Q1023

People´s Info Center:

Öffnungszeiten Mo-Fr, 8-18 Uhr

 

info@peoples.ch

 
Aus Österreich:

T: +43 (0)5572 203 610

 

Aus CH / LI / DE:

T: +41 (0)71 858 51 60

 

Business Lounge Flughafen Altenrhein

Für Ihren Flug mit People's Viennaline.

 

Am Flughafenterminal steht Ihnen unsere Business Lounge für Wartezeiten zur Verfügung. Vielflieger bzw. Tickeblockkunden und Kunden des Flex-Tarifs haben freien Zutritt in die Lounge. Alle weiteren Fluggäste können den Zugang für einen Einzeleintrittspreis von CHF 20.- pro Person beim Check-in beantragen.

 

Speisen- und Getränkeangebot

Geniessen Sie auf die Tageszeit angepasste frische Snacks, Häppchen und regionale Spezialitäten: Vom frischen Birchermüsli oder dem Zopf mit Butter & Konfitüre vor den Morgenflügen bis hin zum Vorarlberger Lumpensalat oder der Blumenkohl-Currysuppe vor den Nachmittags- und Abendflügen.

 

Und das Beste gibt's natürlich zum Schluss: ein frisches Bier der eigenen "Huus-Braui" unseres Catering Lieferanten Walter Tobler zum selber zapfen!